Time;durP1;ratioP1;P1;durP2;ratioP2;P2;SDS_P1;SDS_P2;PMS_P1;PMS_P2;Temp;Humidity;BMP_temperature;BMP_pressure;BME280_temperature;BME280_humidity;BME280_pressure;Samples;Min_cycle;Max_cycle;Signal;HPM_P1;HPM_P2
2021/12/27 00:02:34;;;;;;;;;;;;;;;;;;4222368;28;2565;-58
2021/12/27 00:04:54;;;;;;;;;;;;;;;;;;4205829;28;2558;-58
2021/12/27 00:07:15;;;;;;;;;;;;;;;;;;4223261;28;1018;-58
2021/12/27 00:09:36;;;;;;;;;;;;;;;;;;4222789;28;1188;-58
2021/12/27 00:11:57;;;;;;;;;;;;;;;;;;4223078;28;954;-58
2021/12/27 00:14:18;;;;;;;;;;;;;;;;;;4222274;28;980;-58
2021/12/27 00:16:38;;;;;;;;;;;;;;;;;;4223311;28;1289;-59
2021/12/27 00:18:58;;;;;;;;;;;;;;;;;;4223139;28;994;-58
2021/12/27 00:21:18;;;;;;;;;;;;;;;;;;4223339;28;996;-58
2021/12/27 00:23:39;;;;;;;;;;;;;;;;;;4223119;28;925;-58
2021/12/27 00:25:59;;;;;;;;;;;;;;;;;;4223087;28;1370;-58
2021/12/27 00:28:19;;;;;;;;;;;;;;;;;;4223153;28;999;-58
2021/12/27 00:30:41;;;;;;;;;;;;;;;;;;4223001;28;974;-58
2021/12/27 00:33:02;;;;;;;;;;;;;;;;;;4222931;28;1361;-58
2021/12/27 00:35:26;;;;;;;;;;;;;;;;;;4222867;28;1349;-58
2021/12/27 00:37:46;;;;;;;;;;;;;;;;;;4222812;28;1909;-58
2021/12/27 00:40:07;;;;;;;;;;;;;;;;;;4222872;28;1363;-58
2021/12/27 00:42:27;;;;;;;;;;;;;;;;;;4223180;28;949;-58
2021/12/27 00:44:47;;;;;;;;;;;;;;;;;;4222531;28;955;-58
2021/12/27 00:47:07;;;;;;;;;;;;;;;;;;4222756;28;1157;-58
2021/12/27 00:49:28;;;;;;;;;;;;;;;;;;4222869;28;1243;-58
2021/12/27 00:51:48;;;;;;;;;;;;;;;;;;4222794;28;1069;-59
2021/12/27 00:54:08;;;;;;;;;;;;;;;;;;4223038;28;963;-58
2021/12/27 00:56:28;;;;;;;;;;;;;;;;;;4222863;28;1115;-58
2021/12/27 00:58:49;;;;;;;;;;;;;;;;;;4222811;28;1905;-58
2021/12/27 01:01:09;;;;;;;;;;;;;;;;;;4222710;28;1092;-58
2021/12/27 01:03:29;;;;;;;;;;;;;;;;;;4222677;28;1067;-58
2021/12/27 01:05:50;;;;;;;;;;;;;;;;;;4222849;28;1026;-58
2021/12/27 01:08:10;;;;;;;;;;;;;;;;;;4222646;28;966;-58
2021/12/27 01:13:24;;;;;;;;;;;;;;;;;;4219650;28;983;-58
2021/12/27 01:15:50;;;;;;;;;;;;;;;;;;4222416;28;1253;-58
2021/12/27 01:18:10;;;;;;;;;;;;;;;;;;4222456;28;1905;-58
2021/12/27 01:20:31;;;;;;;;;;;;;;;;;;4222151;28;1288;-58
2021/12/27 01:22:51;;;;;;;;;;;;;;;;;;4222355;28;946;-58
2021/12/27 01:25:12;;;;;;;;;;;;;;;;;;4222593;28;1113;-58
2021/12/27 01:27:32;;;;;;;;;;;;;;;;;;4222503;28;948;-58
2021/12/27 01:29:53;;;;;;;;;;;;;;;;;;4222285;28;1159;-58
2021/12/27 01:32:13;;;;;;;;;;;;;;;;;;4222088;28;1098;-58
2021/12/27 01:34:33;;;;;;;;;;;;;;;;;;4222135;28;1032;-58
2021/12/27 01:36:56;;;;;;;;;;;;;;;;;;4222413;28;1097;-58
2021/12/27 01:39:17;;;;;;;;;;;;;;;;;;4222066;28;1906;-58
2021/12/27 01:41:37;;;;;;;;;;;;;;;;;;4222140;28;1075;-58
2021/12/27 01:43:57;;;;;;;;;;;;;;;;;;4222265;28;1040;-58
2021/12/27 01:46:18;;;;;;;;;;;;;;;;;;4221876;28;1283;-58
2021/12/27 01:48:39;;;;;;;;;;;;;;;;;;4222215;28;1046;-58
2021/12/27 01:50:59;;;;;;;;;;;;;;;;;;4222259;28;1032;-58
2021/12/27 01:53:20;;;;;;;;;;;;;;;;;;4221938;28;1024;-58
2021/12/27 01:55:40;;;;;;;;;;;;;;;;;;4220726;28;1088;-58
2021/12/27 01:58:00;;;;;;;;;;;;;;;;;;4221181;28;1980;-58
2021/12/27 02:03:43;;;;;;;;;;;;;;;;;;4221533;28;1122;-58
2021/12/27 02:06:05;;;;;;;;;;;;;;;;;;4221052;28;1089;-58
2021/12/27 02:08:26;;;;;;;;;;;;;;;;;;4221272;28;1201;-58
2021/12/27 02:10:46;;;;;;;;;;;;;;;;;;4221208;28;1373;-58
2021/12/27 02:13:06;;;;;;;;;;;;;;;;;;4220950;28;1014;-58
2021/12/27 02:15:26;;;;;;;;;;;;;;;;;;4220973;28;1270;-58
2021/12/27 02:17:46;;;;;;;;;;;;;;;;;;4221577;28;1926;-58
2021/12/27 02:20:07;;;;;;;;;;;;;;;;;;4220990;28;1246;-60
2021/12/27 02:22:28;;;;;;;;;;;;;;;;;;4205361;28;1338;-57
2021/12/27 02:24:49;;;;;;;;;;;;;;;;;;4204624;28;1086;-59
2021/12/27 02:27:10;;;;;;;;;;;;;;;;;;4204543;28;1164;-58
2021/12/27 02:29:30;;;;;;;;;;;;;;;;;;4205121;28;1102;-58
2021/12/27 02:31:51;;;;;;;;;;;;;;;;;;4221049;28;1269;-58
2021/12/27 02:34:11;;;;;;;;;;;;;;;;;;4205695;28;1113;-58
2021/12/27 02:36:33;;;;;;;;;;;;;;;;;;4220868;28;1127;-58
2021/12/27 02:38:54;;;;;;;;;;;;;;;;;;4221036;28;1901;-58
2021/12/27 02:41:14;;;;;;;;;;;;;;;;;;4221539;28;1174;-58
2021/12/27 02:43:35;;;;;;;;;;;;;;;;;;4221324;28;1118;-58
2021/12/27 02:45:56;;;;;;;;;;;;;;;;;;4221452;28;1207;-58
2021/12/27 02:48:17;;;;;;;;;;;;;;;;;;4221360;28;1063;-58
2021/12/27 02:50:37;;;;;;;;;;;;;;;;;;4221125;28;963;-58
2021/12/27 02:52:57;;;;;;;;;;;;;;;;;;4221395;28;957;-58
2021/12/27 02:55:17;;;;;;;;;;;;;;;;;;4221081;28;971;-58
2021/12/27 02:57:37;;;;;;;;;;;;;;;;;;4221065;28;1107;-58
2021/12/27 03:00:00;;;;;;;;;;;;;;;;;;4221313;28;993;-58
2021/12/27 03:02:20;;;;;;;;;;;;;;;;;;4215883;28;1899;-58
2021/12/27 03:04:40;;;;;;;;;;;;;;;;;;4204595;28;1039;-58
2021/12/27 03:07:00;;;;;;;;;;;;;;;;;;4212966;28;1139;-58
2021/12/27 03:09:21;;;;;;;;;;;;;;;;;;4223895;28;1138;-58
2021/12/27 03:11:41;;;;;;;;;;;;;;;;;;4224641;28;1021;-58
2021/12/27 03:14:01;;;;;;;;;;;;;;;;;;4223922;28;1108;-58
2021/12/27 03:16:21;;;;;;;;;;;;;;;;;;4223021;28;1966;-58
2021/12/27 03:18:41;;;;;;;;;;;;;;;;;;4205663;28;2538;-58
2021/12/27 03:21:02;;;;;;;;;;;;;;;;;;4207282;28;2399;-58
2021/12/27 03:23:22;;;;;;;;;;;;;;;;;;4215308;28;1043;-58
2021/12/27 03:25:42;;;;;;;;;;;;;;;;;;4206333;28;2608;-58
2021/12/27 03:28:04;;;;;;;;;;;;;;;;;;4207751;28;2420;-58
2021/12/27 03:30:24;;;;;;;;;;;;;;;;;;4220272;28;1019;-58
2021/12/27 03:32:44;;;;;;;;;;;;;;;;;;4206516;28;2011;-58
2021/12/27 03:35:09;;;;;;;;;;;;;;;;;;4206169;28;1882;-58
2021/12/27 03:37:30;;;;;;;;;;;;;;;;;;4219742;28;1883;-58
2021/12/27 03:39:50;;;;;;;;;;;;;;;;;;4230812;28;1905;-58
2021/12/27 03:42:10;;;;;;;;;;;;;;;;;;4217759;28;2443;-58
2021/12/27 03:44:30;;;;;;;;;;;;;;;;;;4223833;28;1165;-58
2021/12/27 03:46:51;;;;;;;;;;;;;;;;;;4223366;28;937;-58
2021/12/27 03:49:11;;;;;;;;;;;;;;;;;;4223654;28;1193;-58
2021/12/27 03:51:31;;;;;;;;;;;;;;;;;;4223392;28;943;-58
2021/12/27 03:53:51;;;;;;;;;;;;;;;;;;4223202;28;963;-58
2021/12/27 03:56:11;;;;;;;;;;;;;;;;;;4223616;28;1031;-58
2021/12/27 03:58:44;;;;;;;;;;;;;;;;;;4223201;28;1910;-57
2021/12/27 04:01:14;;;;;;;;;;;;;;;;;;4223318;28;1177;-58
2021/12/27 04:03:35;;;;;;;;;;;;;;;;;;4223121;28;1063;-58
2021/12/27 04:05:55;;;;;;;;;;;;;;;;;;4223295;28;960;-58
2021/12/27 04:08:17;;;;;;;;;;;;;;;;;;4223540;28;1013;-58
2021/12/27 04:10:38;;;;;;;;;;;;;;;;;;4207997;28;1031;-58
2021/12/27 04:12:58;;;;;;;;;;;;;;;;;;4222869;28;1145;-57
2021/12/27 04:15:18;;;;;;;;;;;;;;;;;;4222885;28;1096;-58
2021/12/27 04:17:39;;;;;;;;;;;;;;;;;;4222986;28;1013;-58
2021/12/27 04:19:59;;;;;;;;;;;;;;;;;;4222712;28;1987;-58
2021/12/27 04:22:19;;;;;;;;;;;;;;;;;;4223218;28;1175;-58
2021/12/27 04:24:40;;;;;;;;;;;;;;;;;;4223403;28;1214;-58
2021/12/27 04:27:00;;;;;;;;;;;;;;;;;;4223058;28;1085;-58
2021/12/27 04:29:20;;;;;;;;;;;;;;;;;;4223042;28;960;-58
2021/12/27 04:31:41;;;;;;;;;;;;;;;;;;4222900;28;1379;-58
2021/12/27 04:34:01;;;;;;;;;;;;;;;;;;4222979;28;1039;-58
2021/12/27 04:36:21;;;;;;;;;;;;;;;;;;4222877;28;1189;-58
2021/12/27 04:38:42;;;;;;;;;;;;;;;;;;4222847;28;1905;-58
2021/12/27 04:41:03;;;;;;;;;;;;;;;;;;4223048;28;1012;-58
2021/12/27 04:43:23;;;;;;;;;;;;;;;;;;4222754;28;1078;-58
2021/12/27 04:45:44;;;;;;;;;;;;;;;;;;4222594;28;1163;-58
2021/12/27 04:48:04;;;;;;;;;;;;;;;;;;4222919;28;1121;-58
2021/12/27 04:50:25;;;;;;;;;;;;;;;;;;4222686;28;1068;-57
2021/12/27 04:52:47;;;;;;;;;;;;;;;;;;4222779;28;996;-58
2021/12/27 04:55:07;;;;;;;;;;;;;;;;;;4221482;28;1843;-58
2021/12/27 04:57:28;;;;;;;;;;;;;;;;;;4209847;28;2246;-58
2021/12/27 04:59:49;;;;;;;;;;;;;;;;;;4205879;28;1965;-58
2021/12/27 05:02:09;;;;;;;;;;;;;;;;;;4218428;28;1103;-58
2021/12/27 05:04:29;;;;;;;;;;;;;;;;;;4222554;28;1045;-58
2021/12/27 05:06:49;;;;;;;;;;;;;;;;;;4222243;28;1001;-58
2021/12/27 05:09:09;;;;;;;;;;;;;;;;;;4222514;28;1195;-58
2021/12/27 05:11:31;;;;;;;;;;;;;;;;;;4221796;28;1388;-58
2021/12/27 05:13:52;;;;;;;;;;;;;;;;;;4222420;28;1475;-58
2021/12/27 05:16:12;;;;;;;;;;;;;;;;;;4222292;28;1057;-58
2021/12/27 05:18:32;;;;;;;;;;;;;;;;;;4222255;28;1006;-58
2021/12/27 05:20:52;;;;;;;;;;;;;;;;;;4222561;28;1103;-58
2021/12/27 05:23:13;;;;;;;;;;;;;;;;;;4222544;28;1051;-58
2021/12/27 05:25:33;;;;;;;;;;;;;;;;;;4222461;28;950;-58
2021/12/27 05:27:53;;;;;;;;;;;;;;;;;;4222287;28;1215;-58
2021/12/27 05:30:14;;;;;;;;;;;;;;;;;;4222412;28;1005;-59
2021/12/27 05:32:35;;;;;;;;;;;;;;;;;;4222384;28;1244;-58
2021/12/27 05:34:55;;;;;;;;;;;;;;;;;;4222373;28;1187;-58
2021/12/27 05:37:16;;;;;;;;;;;;;;;;;;4222153;28;985;-58
2021/12/27 05:39:36;;;;;;;;;;;;;;;;;;4222070;28;1906;-58
2021/12/27 05:41:56;;;;;;;;;;;;;;;;;;4222244;28;1287;-58
2021/12/27 05:44:17;;;;;;;;;;;;;;;;;;4222295;28;969;-58
2021/12/27 05:46:37;;;;;;;;;;;;;;;;;;4222256;28;1201;-58
2021/12/27 05:48:58;;;;;;;;;;;;;;;;;;4222297;28;1206;-58
2021/12/27 05:51:18;;;;;;;;;;;;;;;;;;4222342;28;933;-59
2021/12/27 05:53:39;;;;;;;;;;;;;;;;;;4222218;28;1005;-58
2021/12/27 05:55:59;;;;;;;;;;;;;;;;;;4222003;28;1211;-58
2021/12/27 05:58:19;;;;;;;;;;;;;;;;;;4221891;28;1103;-58
2021/12/27 06:00:39;;;;;;;;;;;;;;;;;;4221925;28;1898;-58
2021/12/27 06:03:00;;;;;;;;;;;;;;;;;;4222208;28;996;-58
2021/12/27 06:05:20;;;;;;;;;;;;;;;;;;4221988;28;1056;-58
2021/12/27 06:07:41;;;;;;;;;;;;;;;;;;4221756;28;1163;-58
2021/12/27 06:10:01;;;;;;;;;;;;;;;;;;4221861;28;1050;-58
2021/12/27 06:12:21;;;;;;;;;;;;;;;;;;4222112;28;1077;-58
2021/12/27 06:14:41;;;;;;;;;;;;;;;;;;4221857;28;942;-58
2021/12/27 06:17:02;;;;;;;;;;;;;;;;;;4236644;28;1040;-58
2021/12/27 06:19:22;;;;;;;;;;;;;;;;;;4238396;28;1910;-58
2021/12/27 06:21:42;;;;;;;;;;;;;;;;;;4238579;28;1079;-58
2021/12/27 06:24:02;;;;;;;;;;;;;;;;;;4238641;28;1039;-58
2021/12/27 06:26:23;;;;;;;;;;;;;;;;;;4238745;28;983;-58
2021/12/27 06:28:43;;;;;;;;;;;;;;;;;;4238639;28;966;-58
2021/12/27 06:31:04;;;;;;;;;;;;;;;;;;4238747;28;1085;-58
2021/12/27 06:33:24;;;;;;;;;;;;;;;;;;4238409;28;1033;-58
2021/12/27 06:35:44;;;;;;;;;;;;;;;;;;4238384;28;954;-58
2021/12/27 06:38:05;;;;;;;;;;;;;;;;;;4238617;28;827;-58
2021/12/27 06:40:25;;;;;;;;;;;;;;;;;;4238608;28;1978;-58
2021/12/27 06:42:46;;;;;;;;;;;;;;;;;;4237871;28;1093;-58
2021/12/27 06:45:06;;;;;;;;;;;;;;;;;;4238292;28;1132;-58
2021/12/27 06:47:27;;;;;;;;;;;;;;;;;;4238615;28;836;-58
2021/12/27 06:49:48;;;;;;;;;;;;;;;;;;4238466;28;912;-58
2021/12/27 06:52:09;;;;;;;;;;;;;;;;;;4238105;28;1011;-58
2021/12/27 06:54:29;;;;;;;;;;;;;;;;;;4238118;28;1172;-58
2021/12/27 06:56:49;;;;;;;;;;;;;;;;;;4238221;28;1286;-58
2021/12/27 06:59:09;;;;;;;;;;;;;;;;;;4238119;28;996;-58
2021/12/27 07:01:30;;;;;;;;;;;;;;;;;;4237901;28;951;-58
2021/12/27 07:03:50;;;;;;;;;;;;;;;;;;4238160;28;960;-58
2021/12/27 07:06:10;;;;;;;;;;;;;;;;;;4238098;28;977;-58
2021/12/27 07:08:30;;;;;;;;;;;;;;;;;;4237865;28;930;-58
2021/12/27 07:10:51;;;;;;;;;;;;;;;;;;4238278;28;1239;-58
2021/12/27 07:13:11;;;;;;;;;;;;;;;;;;4238317;28;1227;-58
2021/12/27 07:15:31;;;;;;;;;;;;;;;;;;4237825;28;1594;-58
2021/12/27 07:17:52;;;;;;;;;;;;;;;;;;4238094;28;963;-58
2021/12/27 07:20:12;;;;;;;;;;;;;;;;;;4237695;28;1913;-58
2021/12/27 07:22:32;;;;;;;;;;;;;;;;;;4237975;28;1062;-58
2021/12/27 07:24:53;;;;;;;;;;;;;;;;;;4238226;28;957;-58
2021/12/27 07:27:13;;;;;;;;;;;;;;;;;;4237876;28;969;-58
2021/12/27 07:29:33;;;;;;;;;;;;;;;;;;4237937;28;1026;-58
2021/12/27 07:31:53;;;;;;;;;;;;;;;;;;4237854;28;1242;-58
2021/12/27 07:34:13;;;;;;;;;;;;;;;;;;4237931;28;1019;-58
2021/12/27 07:36:34;;;;;;;;;;;;;;;;;;4237709;28;1088;-58
2021/12/27 07:38:54;;;;;;;;;;;;;;;;;;4237676;28;1430;-58
2021/12/27 07:41:14;;;;;;;;;;;;;;;;;;4237467;28;2004;-59
2021/12/27 07:43:34;;;;;;;;;;;;;;;;;;4237826;28;1113;-58
2021/12/27 07:45:54;;;;;;;;;;;;;;;;;;4237605;28;1186;-58
2021/12/27 07:48:15;;;;;;;;;;;;;;;;;;4237511;28;950;-58
2021/12/27 07:50:36;;;;;;;;;;;;;;;;;;4237431;28;1023;-58
2021/12/27 07:52:56;;;;;;;;;;;;;;;;;;4237554;28;1110;-58
2021/12/27 07:55:17;;;;;;;;;;;;;;;;;;4240907;28;1015;-58
2021/12/27 07:57:37;;;;;;;;;;;;;;;;;;4240575;28;998;-58
2021/12/27 07:59:57;;;;;;;;;;;;;;;;;;4240178;28;1973;-58
2021/12/27 08:02:17;;;;;;;;;;;;;;;;;;4240265;28;1354;-58
2021/12/27 08:04:37;;;;;;;;;;;;;;;;;;4240439;28;943;-58
2021/12/27 08:06:57;;;;;;;;;;;;;;;;;;4240501;28;1158;-57
2021/12/27 08:09:18;;;;;;;;;;;;;;;;;;4233754;28;1329;-59
2021/12/27 08:11:38;;;;;;;;;;;;;;;;;;4222677;28;2026;-59
2021/12/27 08:13:59;;;;;;;;;;;;;;;;;;4207818;28;1781;-58
2021/12/27 08:16:23;;;;;;;;;;;;;;;;;;4220036;28;1722;-58
2021/12/27 08:18:46;;;;;;;;;;;;;;;;;;4222358;28;1923;-59
2021/12/27 08:21:07;;;;;;;;;;;;;;;;;;4222917;28;1949;-59
2021/12/27 08:23:27;;;;;;;;;;;;;;;;;;4223072;28;1014;-59
2021/12/27 08:25:48;;;;;;;;;;;;;;;;;;4223296;28;1129;-59
2021/12/27 08:28:08;;;;;;;;;;;;;;;;;;4222867;28;1125;-59
2021/12/27 08:30:28;;;;;;;;;;;;;;;;;;4223241;28;1180;-58
2021/12/27 08:32:49;;;;;;;;;;;;;;;;;;4222594;28;2107;-59
2021/12/27 08:35:09;;;;;;;;;;;;;;;;;;4220450;28;2002;-59
2021/12/27 08:37:29;;;;;;;;;;;;;;;;;;4220826;28;1588;-59
2021/12/27 08:39:49;;;;;;;;;;;;;;;;;;4221025;28;1500;-59
2021/12/27 08:42:10;;;;;;;;;;;;;;;;;;4220282;28;2014;-59
2021/12/27 08:44:31;;;;;;;;;;;;;;;;;;4221092;28;1503;-59
2021/12/27 08:46:51;;;;;;;;;;;;;;;;;;4220221;28;1781;-59
2021/12/27 08:49:11;;;;;;;;;;;;;;;;;;4220686;28;1941;-59
2021/12/27 08:51:32;;;;;;;;;;;;;;;;;;4217816;28;1281;-58
2021/12/27 08:53:52;;;;;;;;;;;;;;;;;;4205427;28;1682;-58
2021/12/27 08:56:12;;;;;;;;;;;;;;;;;;4221866;28;1563;-59
2021/12/27 08:58:33;;;;;;;;;;;;;;;;;;4220670;28;1942;-59
2021/12/27 09:00:53;;;;;;;;;;;;;;;;;;4221727;28;1925;-59
2021/12/27 09:03:13;;;;;;;;;;;;;;;;;;4221144;28;1638;-59
2021/12/27 09:05:33;;;;;;;;;;;;;;;;;;4221034;28;1917;-55
2021/12/27 09:07:53;;;;;;;;;;;;;;;;;;4221012;28;1737;-56
2021/12/27 09:10:13;;;;;;;;;;;;;;;;;;4221630;28;1988;-55
2021/12/27 09:12:34;;;;;;;;;;;;;;;;;;4221185;28;1781;-55
2021/12/27 09:14:54;;;;;;;;;;;;;;;;;;4220864;28;1526;-55
2021/12/27 09:17:14;;;;;;;;;;;;;;;;;;4220080;28;2459;-54
2021/12/27 09:19:35;;;;;;;;;;;;;;;;;;4221282;28;1867;-55
2021/12/27 09:21:56;;;;;;;;;;;;;;;;;;4221289;28;2243;-55
2021/12/27 09:24:17;;;;;;;;;;;;;;;;;;4218632;28;1725;-53
2021/12/27 09:26:39;;;;;;;;;;;;;;;;;;4218558;28;1795;-53
2021/12/27 09:29:00;;;;;;;;;;;;;;;;;;4219359;28;1788;-53
2021/12/27 09:31:20;;;;;;;;;;;;;;;;;;4217555;28;2588;-53
2021/12/27 09:33:41;;;;;;;;;;;;;;;;;;4220323;28;2289;-53
2021/12/27 09:36:01;;;;;;;;;;;;;;;;;;4219104;28;2070;-53
2021/12/27 09:38:22;;;;;;;;;;;;;;;;;;4218454;28;1355;-53
2021/12/27 09:40:42;;;;;;;;;;;;;;;;;;4221312;28;1910;-53
2021/12/27 09:43:02;;;;;;;;;;;;;;;;;;4217319;28;1989;-53
2021/12/27 09:45:23;;;;;;;;;;;;;;;;;;4218935;28;1605;-53
2021/12/27 09:47:44;;;;;;;;;;;;;;;;;;4220305;28;2195;-53
2021/12/27 09:50:05;;;;;;;;;;;;;;;;;;4220371;28;1495;-53
2021/12/27 09:52:25;;;;;;;;;;;;;;;;;;4220976;28;1665;-53
2021/12/27 09:54:45;;;;;;;;;;;;;;;;;;4219629;28;1340;-56
2021/12/27 09:57:06;;;;;;;;;;;;;;;;;;4219566;28;1397;-57
2021/12/27 09:59:27;;;;;;;;;;;;;;;;;;4220309;28;1921;-54
2021/12/27 10:01:47;;;;;;;;;;;;;;;;;;4220367;28;1910;-53
2021/12/27 10:04:07;;;;;;;;;;;;;;;;;;4220168;28;1521;-51
2021/12/27 10:06:27;;;;;;;;;;;;;;;;;;4219905;28;1573;-54
2021/12/27 10:08:49;;;;;;;;;;;;;;;;;;4219550;28;1320;-53
2021/12/27 10:11:10;;;;;;;;;;;;;;;;;;4219506;28;2017;-53
2021/12/27 10:13:30;;;;;;;;;;;;;;;;;;4219604;28;1576;-53
2021/12/27 10:15:50;;;;;;;;;;;;;;;;;;4219473;28;1816;-54
2021/12/27 10:18:11;;;;;;;;;;;;;;;;;;4220154;28;1849;-53
2021/12/27 10:20:31;;;;;;;;;;;;;;;;;;4221927;28;851;-54
2021/12/27 10:22:52;;;;;;;;;;;;;;;;;;4221953;28;1110;-54
2021/12/27 10:25:12;;;;;;;;;;;;;;;;;;4221844;28;1158;-54
2021/12/27 10:27:34;;;;;;;;;;;;;;;;;;4221987;28;1166;-54
2021/12/27 10:29:54;;;;;;;;;;;;;;;;;;4221777;28;1113;-53
2021/12/27 10:32:16;;;;;;;;;;;;;;;;;;4221544;28;1660;-54
2021/12/27 10:34:36;;;;;;;;;;;;;;;;;;4221732;28;969;-54
2021/12/27 10:36:56;;;;;;;;;;;;;;;;;;4221819;28;966;-53
2021/12/27 10:39:16;;;;;;;;;;;;;;;;;;4222053;28;1078;-53
2021/12/27 10:41:37;;;;;;;;;;;;;;;;;;4221904;28;1994;-53
2021/12/27 10:43:57;;;;;;;;;;;;;;;;;;4221473;28;1055;-53
2021/12/27 10:46:17;;;;;;;;;;;;;;;;;;4221547;28;1056;-53
2021/12/27 10:48:37;;;;;;;;;;;;;;;;;;4221806;28;939;-53
2021/12/27 10:50:58;;;;;;;;;;;;;;;;;;4221452;28;954;-54
2021/12/27 10:53:18;;;;;;;;;;;;;;;;;;4221444;28;1264;-53
2021/12/27 10:55:38;;;;;;;;;;;;;;;;;;4221672;28;893;-53
2021/12/27 10:57:59;;;;;;;;;;;;;;;;;;4221460;28;1111;-55
2021/12/27 11:00:19;;;;;;;;;;;;;;;;;;4221591;28;1039;-55
2021/12/27 11:02:39;;;;;;;;;;;;;;;;;;4221723;28;1902;-55
2021/12/27 11:05:00;;;;;;;;;;;;;;;;;;4221536;28;973;-55
2021/12/27 11:07:21;;;;;;;;;;;;;;;;;;4221697;28;1281;-55
2021/12/27 11:09:42;;;;;;;;;;;;;;;;;;4221360;28;943;-55
2021/12/27 11:12:03;;;;;;;;;;;;;;;;;;4221263;28;1109;-55
2021/12/27 11:14:23;;;;;;;;;;;;;;;;;;4221430;28;1278;-55
2021/12/27 11:16:43;;;;;;;;;;;;;;;;;;4221171;28;1283;-55
2021/12/27 11:19:04;;;;;;;;;;;;;;;;;;4221009;28;981;-55
2021/12/27 11:21:24;;;;;;;;;;;;;;;;;;4205882;28;1910;-56
2021/12/27 11:23:44;;;;;;;;;;;;;;;;;;4221269;28;978;-55
2021/12/27 11:26:05;;;;;;;;;;;;;;;;;;4220750;28;1117;-55
2021/12/27 11:28:25;;;;;;;;;;;;;;;;;;4222704;28;1224;-56
2021/12/27 11:30:45;;;;;;;;;;;;;;;;;;4223519;28;1717;-56
2021/12/27 11:33:06;;;;;;;;;;;;;;;;;;4223427;28;1712;-54
2021/12/27 11:35:26;;;;;;;;;;;;;;;;;;4223709;28;1189;-55
2021/12/27 11:37:47;;;;;;;;;;;;;;;;;;4223885;28;1153;-55
2021/12/27 11:40:08;;;;;;;;;;;;;;;;;;4223146;28;1755;-54
2021/12/27 11:42:29;;;;;;;;;;;;;;;;;;4223828;28;1905;-55
2021/12/27 11:44:49;;;;;;;;;;;;;;;;;;4223577;28;1151;-55
2021/12/27 11:47:09;;;;;;;;;;;;;;;;;;4223565;28;1041;-54
2021/12/27 11:49:30;;;;;;;;;;;;;;;;;;4223669;28;1137;-54
2021/12/27 11:51:53;;;;;;;;;;;;;;;;;;4223315;28;1185;-55
2021/12/27 11:54:13;;;;;;;;;;;;;;;;;;4223443;28;1191;-54
2021/12/27 11:56:33;;;;;;;;;;;;;;;;;;4223436;28;1376;-54
2021/12/27 11:58:53;;;;;;;;;;;;;;;;;;4223314;28;990;-55
2021/12/27 12:01:14;;;;;;;;;;;;;;;;;;4221945;28;1826;-54
2021/12/27 12:03:34;;;;;;;;;;;;;;;;;;4221923;28;1591;-54
2021/12/27 12:05:55;;;;;;;;;;;;;;;;;;4222032;28;1194;-54
2021/12/27 12:08:15;;;;;;;;;;;;;;;;;;4221762;28;1010;-56
2021/12/27 12:10:37;;;;;;;;;;;;;;;;;;4221833;28;931;-54
2021/12/27 12:12:58;;;;;;;;;;;;;;;;;;4221548;28;1061;-55
2021/12/27 12:15:18;;;;;;;;;;;;;;;;;;4221752;28;990;-55
2021/12/27 12:17:38;;;;;;;;;;;;;;;;;;4222032;28;1036;-54
2021/12/27 12:19:59;;;;;;;;;;;;;;;;;;4219878;28;1619;-54
2021/12/27 12:22:19;;;;;;;;;;;;;;;;;;4221588;28;1974;-55
2021/12/27 12:24:39;;;;;;;;;;;;;;;;;;4220452;28;1096;-55
2021/12/27 12:27:00;;;;;;;;;;;;;;;;;;4221124;28;942;-54
2021/12/27 12:29:20;;;;;;;;;;;;;;;;;;4206675;28;1017;-55
2021/12/27 12:31:40;;;;;;;;;;;;;;;;;;4221531;28;1109;-55
2021/12/27 12:34:01;;;;;;;;;;;;;;;;;;4221633;28;1225;-54
2021/12/27 12:36:21;;;;;;;;;;;;;;;;;;4220331;28;1361;-55
2021/12/27 12:38:42;;;;;;;;;;;;;;;;;;4221361;28;1094;-55
2021/12/27 12:41:03;;;;;;;;;;;;;;;;;;4221213;28;1151;-56
2021/12/27 12:43:23;;;;;;;;;;;;;;;;;;4221391;28;2018;-55
2021/12/27 12:45:43;;;;;;;;;;;;;;;;;;4221558;28;1107;-55
2021/12/27 12:48:04;;;;;;;;;;;;;;;;;;4221776;28;1324;-55
2021/12/27 12:50:24;;;;;;;;;;;;;;;;;;4221529;28;974;-54
2021/12/27 12:52:44;;;;;;;;;;;;;;;;;;4221550;28;1184;-55
2021/12/27 12:55:04;;;;;;;;;;;;;;;;;;4221265;28;1585;-55
2021/12/27 12:57:24;;;;;;;;;;;;;;;;;;4221239;28;998;-54
2021/12/27 12:59:45;;;;;;;;;;;;;;;;;;4221303;28;1001;-55
2021/12/27 13:02:06;;;;;;;;;;;;;;;;;;4221228;28;1910;-55
2021/12/27 13:04:26;;;;;;;;;;;;;;;;;;4221113;28;1057;-55
2021/12/27 13:06:46;;;;;;;;;;;;;;;;;;4221032;28;1064;-55
2021/12/27 13:09:06;;;;;;;;;;;;;;;;;;4220929;28;1009;-55
2021/12/27 13:11:27;;;;;;;;;;;;;;;;;;4220826;28;974;-55
2021/12/27 13:13:47;;;;;;;;;;;;;;;;;;4221051;28;982;-55
2021/12/27 13:16:07;;;;;;;;;;;;;;;;;;4221123;28;1186;-54
2021/12/27 13:18:28;;;;;;;;;;;;;;;;;;4219068;28;1341;-54
2021/12/27 13:20:48;;;;;;;;;;;;;;;;;;4220987;28;1197;-55
2021/12/27 13:23:09;;;;;;;;;;;;;;;;;;4220791;28;1962;-55
2021/12/27 13:25:29;;;;;;;;;;;;;;;;;;4220736;28;1223;-55
2021/12/27 13:27:49;;;;;;;;;;;;;;;;;;4220978;28;1176;-54
2021/12/27 13:30:09;;;;;;;;;;;;;;;;;;4221203;28;1141;-54
2021/12/27 13:32:29;;;;;;;;;;;;;;;;;;4221213;28;1005;-55
2021/12/27 13:34:50;;;;;;;;;;;;;;;;;;4220735;28;1096;-55
2021/12/27 13:37:10;;;;;;;;;;;;;;;;;;4220919;28;1148;-55
2021/12/27 13:39:32;;;;;;;;;;;;;;;;;;4220686;28;1073;-54
2021/12/27 13:41:52;;;;;;;;;;;;;;;;;;4220909;28;1090;-55
2021/12/27 13:44:13;;;;;;;;;;;;;;;;;;4220748;28;1284;-55
2021/12/27 13:46:33;;;;;;;;;;;;;;;;;;4221040;28;1244;-55
2021/12/27 13:48:53;;;;;;;;;;;;;;;;;;4220757;28;1286;-55
2021/12/27 13:51:13;;;;;;;;;;;;;;;;;;4220477;28;1066;-55
2021/12/27 13:53:33;;;;;;;;;;;;;;;;;;4220835;28;1015;-55
2021/12/27 13:55:54;;;;;;;;;;;;;;;;;;4220329;28;1679;-54
2021/12/27 13:58:14;;;;;;;;;;;;;;;;;;4220540;28;1252;-55
2021/12/27 14:00:36;;;;;;;;;;;;;;;;;;4220446;28;1108;-55
2021/12/27 14:02:58;;;;;;;;;;;;;;;;;;4220237;28;1989;-55
2021/12/27 14:05:19;;;;;;;;;;;;;;;;;;4220140;28;1077;-55
2021/12/27 14:07:39;;;;;;;;;;;;;;;;;;4220139;28;1121;-55
2021/12/27 14:09:59;;;;;;;;;;;;;;;;;;4220098;28;1192;-54
2021/12/27 14:12:22;;;;;;;;;;;;;;;;;;4220249;28;1163;-54
2021/12/27 14:14:42;;;;;;;;;;;;;;;;;;4220475;28;1156;-55
2021/12/27 14:17:03;;;;;;;;;;;;;;;;;;4220073;28;1150;-55
2021/12/27 14:19:24;;;;;;;;;;;;;;;;;;4220868;28;1232;-55
2021/12/27 14:21:44;;;;;;;;;;;;;;;;;;4221542;28;1207;-55
2021/12/27 14:24:04;;;;;;;;;;;;;;;;;;4220469;28;1945;-55
2021/12/27 14:26:24;;;;;;;;;;;;;;;;;;4221777;28;990;-54
2021/12/27 14:28:44;;;;;;;;;;;;;;;;;;4221654;28;907;-55
2021/12/27 14:31:04;;;;;;;;;;;;;;;;;;4221744;28;991;-55
2021/12/27 14:33:25;;;;;;;;;;;;;;;;;;4221573;28;1020;-55
2021/12/27 14:35:45;;;;;;;;;;;;;;;;;;4221741;28;1059;-54
2021/12/27 14:38:06;;;;;;;;;;;;;;;;;;4221603;28;1110;-55
2021/12/27 14:40:26;;;;;;;;;;;;;;;;;;4221810;28;1009;-54
2021/12/27 14:42:46;;;;;;;;;;;;;;;;;;4221557;28;1914;-54
2021/12/27 14:45:07;;;;;;;;;;;;;;;;;;4221524;28;1275;-55
2021/12/27 14:47:28;;;;;;;;;;;;;;;;;;4221526;28;1158;-55
2021/12/27 14:49:48;;;;;;;;;;;;;;;;;;4221493;28;1028;-54
2021/12/27 14:52:08;;;;;;;;;;;;;;;;;;4221554;28;1106;-54
2021/12/27 14:54:28;;;;;;;;;;;;;;;;;;4221772;28;1072;-55
2021/12/27 14:56:49;;;;;;;;;;;;;;;;;;4221310;28;1034;-55
2021/12/27 14:59:09;;;;;;;;;;;;;;;;;;4221420;28;1022;-54
2021/12/27 15:01:31;;;;;;;;;;;;;;;;;;4221612;28;936;-55
2021/12/27 15:03:52;;;;;;;;;;;;;;;;;;4223827;28;1914;-54
2021/12/27 15:06:12;;;;;;;;;;;;;;;;;;4224408;28;1100;-55
2021/12/27 15:08:32;;;;;;;;;;;;;;;;;;4224329;28;1139;-55
2021/12/27 15:10:53;;;;;;;;;;;;;;;;;;4224351;28;1046;-55
2021/12/27 15:13:14;;;;;;;;;;;;;;;;;;4224488;28;1006;-54
2021/12/27 15:15:35;;;;;;;;;;;;;;;;;;4224214;28;1163;-54
2021/12/27 15:17:55;;;;;;;;;;;;;;;;;;4224067;28;1107;-55
2021/12/27 15:20:15;;;;;;;;;;;;;;;;;;4224285;28;1088;-54
2021/12/27 15:22:36;;;;;;;;;;;;;;;;;;4223865;28;1913;-54
2021/12/27 15:24:57;;;;;;;;;;;;;;;;;;4223911;28;955;-54
2021/12/27 15:27:19;;;;;;;;;;;;;;;;;;4223833;28;1023;-55
2021/12/27 15:29:40;;;;;;;;;;;;;;;;;;4223857;28;967;-54
2021/12/27 15:32:01;;;;;;;;;;;;;;;;;;4223843;28;1224;-54
2021/12/27 15:34:21;;;;;;;;;;;;;;;;;;4223748;28;1043;-55
2021/12/27 15:36:41;;;;;;;;;;;;;;;;;;4223752;28;1132;-55
2021/12/27 15:39:02;;;;;;;;;;;;;;;;;;4224114;28;970;-54
2021/12/27 15:41:22;;;;;;;;;;;;;;;;;;4210236;28;2389;-54
2021/12/27 15:43:43;;;;;;;;;;;;;;;;;;4206673;28;1971;-55
2021/12/27 15:46:03;;;;;;;;;;;;;;;;;;4210123;28;1838;-56
2021/12/27 15:48:24;;;;;;;;;;;;;;;;;;4223849;28;1027;-57
2021/12/27 15:50:44;;;;;;;;;;;;;;;;;;4223527;28;966;-56
2021/12/27 15:53:04;;;;;;;;;;;;;;;;;;4224053;28;1035;-56
2021/12/27 15:55:25;;;;;;;;;;;;;;;;;;4223246;28;1116;-56
2021/12/27 15:57:45;;;;;;;;;;;;;;;;;;4223262;28;926;-56
2021/12/27 16:00:06;;;;;;;;;;;;;;;;;;4207091;28;1188;-56
2021/12/27 16:02:27;;;;;;;;;;;;;;;;;;4206605;28;1065;-56
2021/12/27 16:04:47;;;;;;;;;;;;;;;;;;4206232;28;1989;-56
2021/12/27 16:07:08;;;;;;;;;;;;;;;;;;4206388;28;1116;-57
2021/12/27 16:09:28;;;;;;;;;;;;;;;;;;4207655;28;1408;-56
2021/12/27 16:11:49;;;;;;;;;;;;;;;;;;4222997;28;1493;-56
2021/12/27 16:14:09;;;;;;;;;;;;;;;;;;4222113;28;1314;-56
2021/12/27 16:16:32;;;;;;;;;;;;;;;;;;4223124;28;1268;-56
2021/12/27 16:18:52;;;;;;;;;;;;;;;;;;4222982;28;999;-56
2021/12/27 16:21:13;;;;;;;;;;;;;;;;;;4223079;28;993;-56
2021/12/27 16:23:33;;;;;;;;;;;;;;;;;;4223052;28;1886;-56
2021/12/27 16:25:54;;;;;;;;;;;;;;;;;;4223002;28;1162;-56